Time;durP1;ratioP1;P1;durP2;ratioP2;P2;SDS_P1;SDS_P2;PMS_P1;PMS_P2;Temp;Humidity;BMP_temperature;BMP_pressure;BME280_temperature;BME280_humidity;BME280_pressure;Samples;Min_cycle;Max_cycle;Signal;HPM_P1;HPM_P2
2022/10/15 00:01:41;;;;;;;1.63;1.00;;;17.10;99.90;;;;;;5035223;28;20601;-76
2022/10/15 00:04:07;;;;;;;1.57;1.03;;;17.10;99.90;;;;;;5032753;28;20184;-74
2022/10/15 00:06:33;;;;;;;2.37;1.03;;;17.10;99.90;;;;;;5010123;28;20238;-74
2022/10/15 00:08:59;;;;;;;1.57;1.10;;;17.10;99.90;;;;;;5032890;28;20192;-76
2022/10/15 00:11:26;;;;;;;2.87;1.10;;;17.10;99.90;;;;;;5015199;28;20512;-74
2022/10/15 00:13:57;;;;;;;2.23;1.03;;;17.10;99.90;;;;;;5031492;28;20176;-76
2022/10/15 00:16:25;;;;;;;2.97;1.10;;;17.10;99.90;;;;;;5032609;28;20437;-76
2022/10/15 00:18:53;;;;;;;2.23;1.00;;;17.10;99.90;;;;;;5032448;28;20993;-75
2022/10/15 00:21:20;;;;;;;2.73;1.40;;;17.00;99.90;;;;;;5034477;28;20446;-76
2022/10/15 00:23:47;;;;;;;1.40;1.00;;;17.00;99.90;;;;;;5032134;28;20430;-75
2022/10/15 00:26:18;;;;;;;2.33;1.10;;;17.00;99.90;;;;;;5030646;28;20510;-74
2022/10/15 00:28:45;;;;;;;1.50;0.90;;;17.00;99.90;;;;;;5026979;28;20516;-73
2022/10/15 00:31:16;;;;;;;3.50;1.20;;;16.90;99.90;;;;;;5018997;28;20447;-74
2022/10/15 00:33:43;;;;;;;2.37;1.10;;;16.90;99.90;;;;;;5029100;28;20436;-75
2022/10/15 00:36:14;;;;;;;1.80;1.20;;;17.00;99.90;;;;;;5029545;28;20437;-75
2022/10/15 00:38:41;;;;;;;1.40;1.00;;;17.00;99.90;;;;;;5031074;28;20438;-74
2022/10/15 00:41:08;;;;;;;1.57;1.00;;;17.00;99.90;;;;;;5033243;28;20508;-74
2022/10/15 00:43:37;;;;;;;1.60;1.00;;;17.00;99.90;;;;;;5022956;28;20419;-75
2022/10/15 00:46:04;;;;;;;1.63;1.17;;;17.00;99.90;;;;;;5035543;28;20434;-74
2022/10/15 00:48:30;;;;;;;1.60;1.00;;;17.00;99.90;;;;;;5034286;28;20997;-76
2022/10/15 00:51:01;;;;;;;2.20;1.60;;;17.00;99.90;;;;;;5038002;28;20441;-75
2022/10/15 00:53:26;;;;;;;2.20;1.00;;;17.00;99.90;;;;;;5035890;28;20446;-75
2022/10/15 00:55:52;;;;;;;2.33;1.00;;;17.00;99.90;;;;;;5035175;28;20480;-75
2022/10/15 00:58:26;;;;;;;1.70;1.10;;;17.00;99.90;;;;;;5038251;28;20188;-75
2022/10/15 01:00:52;;;;;;;1.50;1.00;;;17.00;99.90;;;;;;5034186;28;20204;-72
2022/10/15 01:03:18;;;;;;;1.47;0.93;;;16.90;99.90;;;;;;5035588;28;20482;-74
2022/10/15 01:05:47;;;;;;;2.47;1.07;;;16.80;99.90;;;;;;5022374;28;20482;-74
2022/10/15 01:08:12;;;;;;;4.90;1.47;;;16.80;99.90;;;;;;5033988;28;20273;-73
2022/10/15 01:11:08;;;;;;;1.80;1.20;;;16.80;99.90;;;;;;5041737;28;20962;-75
2022/10/15 01:13:48;;;;;;;2.00;1.10;;;16.80;99.90;;;;;;5035545;28;20191;-75
2022/10/15 01:16:23;;;;;;;1.87;0.97;;;16.80;99.90;;;;;;5033269;28;21093;-76
2022/10/15 01:19:30;;;;;;;2.13;1.00;;;16.80;99.90;;;;;;5037127;28;20437;-76
2022/10/15 01:22:12;;;;;;;2.60;1.13;;;16.70;99.90;;;;;;5010598;28;20447;-75
2022/10/15 01:25:13;;;;;;;4.47;1.20;;;16.80;99.90;;;;;;5039533;28;20411;-75
2022/10/15 01:27:44;;;;;;;3.10;1.17;;;16.70;99.90;;;;;;5016954;28;20462;-76
2022/10/15 01:30:22;;;;;;;2.53;1.30;;;16.70;99.90;;;;;;5038100;28;20467;-75
2022/10/15 01:33:20;;;;;;;2.20;1.10;;;16.70;99.90;;;;;;5032508;28;20557;-76
2022/10/15 01:35:53;;;;;;;2.33;1.20;;;16.80;99.90;;;;;;5021865;28;20477;-75
2022/10/15 01:38:24;;;;;;;2.53;1.00;;;16.80;99.90;;;;;;5023241;28;20438;-74
2022/10/15 01:41:00;;;;;;;1.80;1.10;;;16.80;99.90;;;;;;5040560;28;20486;-74
2022/10/15 01:43:37;;;;;;;1.70;1.10;;;16.80;99.90;;;;;;5032677;28;20449;-75
2022/10/15 01:46:07;;;;;;;1.60;1.17;;;16.80;99.90;;;;;;5035058;28;20441;-72
2022/10/15 01:48:36;;;;;;;1.50;1.10;;;16.80;99.90;;;;;;5024614;28;20465;-74
2022/10/15 01:51:04;;;;;;;2.23;1.17;;;16.80;99.90;;;;;;5033578;28;20463;-74
2022/10/15 01:53:33;;;;;;;2.73;1.10;;;16.80;99.90;;;;;;5032884;28;20454;-73
2022/10/15 01:56:07;;;;;;;2.53;1.27;;;16.90;99.90;;;;;;5034624;28;20446;-75
2022/10/15 01:58:37;;;;;;;1.77;1.27;;;16.90;99.90;;;;;;5030661;28;20439;-73
2022/10/15 02:01:03;;;;;;;1.60;1.00;;;16.90;99.90;;;;;;5035134;28;20450;-74
2022/10/15 02:03:28;;;;;;;2.40;1.17;;;16.90;99.90;;;;;;5033500;28;20471;-76
2022/10/15 02:06:08;;;;;;;1.50;1.10;;;17.00;99.90;;;;;;5033884;28;20709;-75
2022/10/15 02:08:44;;;;;;;1.80;1.20;;;17.00;99.90;;;;;;5034385;28;20191;-74
2022/10/15 02:11:13;;;;;;;4.10;1.40;;;17.00;99.90;;;;;;5033878;28;20518;-76
2022/10/15 02:13:54;;;;;;;6.00;1.13;;;17.00;99.90;;;;;;5034193;28;20889;-76
2022/10/15 02:16:33;;;;;;;1.87;1.30;;;17.10;99.90;;;;;;5018243;28;20441;-76
2022/10/15 02:19:05;;;;;;;1.60;1.10;;;17.10;99.90;;;;;;5034443;28;20479;-75
2022/10/15 02:21:35;;;;;;;1.60;1.10;;;17.10;99.90;;;;;;5031372;28;20473;-74
2022/10/15 02:24:19;;;;;;;3.10;1.30;;;17.10;99.90;;;;;;5031405;28;20439;-75
2022/10/15 02:26:45;;;;;;;1.50;1.10;;;17.10;99.90;;;;;;5038481;28;20466;-75
2022/10/15 02:29:15;;;;;;;1.50;1.00;;;17.00;99.90;;;;;;5030315;28;21101;-75
2022/10/15 02:31:44;;;;;;;1.73;1.10;;;17.00;99.90;;;;;;5030808;28;20461;-75
2022/10/15 02:34:14;;;;;;;2.70;1.40;;;16.90;99.90;;;;;;5027530;28;20520;-75
2022/10/15 02:36:41;;;;;;;1.50;1.00;;;16.90;99.90;;;;;;5009848;28;20478;-74
2022/10/15 02:39:10;;;;;;;2.33;1.20;;;17.00;99.90;;;;;;4999975;28;20593;-77
2022/10/15 02:41:37;;;;;;;3.40;1.30;;;17.00;99.90;;;;;;5029016;28;20469;-74
2022/10/15 02:44:03;;;;;;;1.60;1.10;;;17.00;99.90;;;;;;5031103;28;20449;-74
2022/10/15 02:46:29;;;;;;;2.53;1.00;;;17.00;99.90;;;;;;5031258;28;20470;-74
2022/10/15 02:48:54;;;;;;;1.43;0.97;;;17.10;99.90;;;;;;5031689;28;20180;-74
2022/10/15 02:51:20;;;;;;;1.60;1.20;;;17.10;99.90;;;;;;5016681;28;20208;-76
2022/10/15 02:53:45;;;;;;;4.20;1.20;;;17.10;99.90;;;;;;5036769;28;20191;-73
2022/10/15 02:56:11;;;;;;;1.80;1.10;;;17.10;99.90;;;;;;5027440;28;20210;-76
2022/10/15 02:58:37;;;;;;;1.70;1.20;;;17.10;99.90;;;;;;5031353;28;20273;-75
2022/10/15 03:01:03;;;;;;;1.47;1.00;;;17.10;99.90;;;;;;5036132;28;20242;-71
2022/10/15 03:03:28;;;;;;;1.93;1.10;;;17.20;99.90;;;;;;5031986;28;20180;-77
2022/10/15 03:05:54;;;;;;;1.50;1.00;;;17.20;99.90;;;;;;5029675;28;20445;-74
2022/10/15 03:08:20;;;;;;;1.40;1.00;;;17.20;99.90;;;;;;5016269;28;20690;-73
2022/10/15 03:10:46;;;;;;;1.40;1.00;;;17.20;99.90;;;;;;5034198;28;20292;-73
2022/10/15 03:13:11;;;;;;;1.40;1.00;;;17.10;99.90;;;;;;5032217;28;20237;-75
2022/10/15 03:15:37;;;;;;;1.50;1.00;;;17.10;99.90;;;;;;5028018;28;20192;-73
2022/10/15 03:18:03;;;;;;;1.50;1.10;;;17.10;99.90;;;;;;5032780;28;20266;-71
2022/10/15 03:20:29;;;;;;;1.50;1.00;;;17.10;99.90;;;;;;5018192;28;20288;-75
2022/10/15 03:22:55;;;;;;;1.73;1.30;;;17.10;99.90;;;;;;5016055;28;20435;-73
2022/10/15 03:25:20;;;;;;;2.33;1.10;;;17.10;99.90;;;;;;5032581;28;20188;-75
2022/10/15 03:27:46;;;;;;;2.20;1.20;;;17.10;99.90;;;;;;5033315;28;20211;-74
2022/10/15 03:30:12;;;;;;;2.47;1.27;;;17.20;99.90;;;;;;5025470;28;20289;-74
2022/10/15 03:32:38;;;;;;;2.37;1.10;;;17.20;99.90;;;;;;5031889;28;20737;-74
2022/10/15 03:35:04;;;;;;;1.57;1.20;;;17.20;99.90;;;;;;5031147;28;20241;-73
2022/10/15 03:37:30;;;;;;;1.73;1.17;;;17.20;99.90;;;;;;5019859;28;20187;-73
2022/10/15 03:39:56;;;;;;;1.97;1.10;;;17.20;99.90;;;;;;5029176;28;20522;-74
2022/10/15 03:42:21;;;;;;;2.50;1.10;;;17.20;99.90;;;;;;5029389;28;20926;-74
2022/10/15 03:44:47;;;;;;;1.80;1.20;;;17.20;99.90;;;;;;5031082;28;20559;-72
2022/10/15 03:47:13;;;;;;;1.50;1.10;;;17.20;99.90;;;;;;5029228;28;20227;-74
2022/10/15 03:49:38;;;;;;;1.60;1.20;;;17.20;99.90;;;;;;5031781;28;20215;-73
2022/10/15 03:52:04;;;;;;;1.70;1.23;;;17.20;99.90;;;;;;5029108;28;20181;-74
2022/10/15 03:54:29;;;;;;;2.00;1.30;;;17.20;99.90;;;;;;5027956;28;20210;-73
2022/10/15 03:56:55;;;;;;;2.17;1.20;;;17.20;99.90;;;;;;5030641;28;20235;-76
2022/10/15 03:59:21;;;;;;;6.67;1.40;;;17.30;99.90;;;;;;5033247;28;20187;-75
2022/10/15 04:01:46;;;;;;;2.33;1.37;;;17.30;99.90;;;;;;5032726;28;20198;-77
2022/10/15 04:04:12;;;;;;;6.37;1.70;;;17.30;99.90;;;;;;5028056;28;20198;-76
2022/10/15 04:06:38;;;;;;;2.10;1.20;;;17.20;99.90;;;;;;5031295;28;20218;-77
2022/10/15 04:09:04;;;;;;;1.97;1.20;;;17.30;99.90;;;;;;5028363;28;20315;-75
2022/10/15 04:11:30;;;;;;;1.40;1.00;;;17.20;99.90;;;;;;5016554;28;20206;-76
2022/10/15 04:13:55;;;;;;;1.40;1.03;;;17.30;99.90;;;;;;5029348;28;20443;-76
2022/10/15 04:16:21;;;;;;;1.80;1.30;;;17.20;99.90;;;;;;5033363;28;20448;-75
2022/10/15 04:18:47;;;;;;;1.60;1.20;;;17.20;99.90;;;;;;5026341;28;20901;-75
2022/10/15 04:21:12;;;;;;;2.47;1.50;;;17.20;99.90;;;;;;5036590;28;20283;-75
2022/10/15 04:23:38;;;;;;;2.90;1.93;;;17.30;99.90;;;;;;5034629;28;20719;-76
2022/10/15 04:26:05;;;;;;;1.67;1.20;;;17.30;99.90;;;;;;5037028;28;20180;-75
2022/10/15 04:28:30;;;;;;;1.60;1.10;;;17.30;99.90;;;;;;5020450;28;20212;-76
2022/10/15 04:30:57;;;;;;;1.60;1.10;;;17.40;99.90;;;;;;5016030;28;20987;-77
2022/10/15 04:33:23;;;;;;;1.93;1.40;;;17.40;99.90;;;;;;5036544;28;20288;-76
2022/10/15 04:36:00;;;;;;;2.80;1.20;;;17.40;99.90;;;;;;5034725;28;20437;-77
2022/10/15 04:38:26;;;;;;;2.53;1.40;;;17.30;99.90;;;;;;5037251;28;20437;-74
2022/10/15 04:41:03;;;;;;;2.60;1.50;;;17.40;99.90;;;;;;5033777;28;20478;-76
2022/10/15 04:43:29;;;;;;;1.90;1.30;;;17.30;99.90;;;;;;5032692;28;20669;-76
2022/10/15 04:45:56;;;;;;;2.30;1.40;;;17.30;99.90;;;;;;5032204;28;20466;-75
2022/10/15 04:48:21;;;;;;;1.80;1.30;;;17.40;99.90;;;;;;5036692;28;20622;-76
2022/10/15 04:50:47;;;;;;;3.00;1.40;;;17.30;99.90;;;;;;5033995;28;20538;-75
2022/10/15 04:53:12;;;;;;;2.43;1.40;;;17.30;99.90;;;;;;5034324;28;20210;-76
2022/10/15 04:55:38;;;;;;;4.53;1.60;;;17.30;99.90;;;;;;5036981;28;20188;-75
2022/10/15 04:58:04;;;;;;;1.83;1.40;;;17.30;99.90;;;;;;5024078;28;20199;-75
2022/10/15 05:00:29;;;;;;;2.03;1.50;;;17.30;99.90;;;;;;5021763;28;20203;-77
2022/10/15 05:02:55;;;;;;;2.67;1.37;;;17.30;99.90;;;;;;5035414;28;20183;-74
2022/10/15 05:05:20;;;;;;;2.73;1.30;;;17.30;99.90;;;;;;5034650;28;20187;-73
2022/10/15 05:07:46;;;;;;;5.20;1.30;;;17.30;99.90;;;;;;5036130;28;20219;-74
2022/10/15 05:10:11;;;;;;;1.70;1.13;;;17.40;99.90;;;;;;5032459;28;20287;-74
2022/10/15 05:12:37;;;;;;;3.10;1.40;;;17.30;99.90;;;;;;5033171;28;20192;-75
2022/10/15 05:15:03;;;;;;;1.70;1.23;;;17.30;99.90;;;;;;5033591;28;20193;-75
2022/10/15 05:17:29;;;;;;;1.70;1.40;;;17.30;99.90;;;;;;5024322;28;20210;-75
2022/10/15 05:19:55;;;;;;;2.73;1.20;;;17.30;99.90;;;;;;5033432;28;20691;-73
2022/10/15 05:22:20;;;;;;;2.63;1.60;;;17.30;99.90;;;;;;5036398;28;20451;-76
2022/10/15 05:24:46;;;;;;;3.73;1.33;;;17.30;99.90;;;;;;5039359;28;20183;-76
2022/10/15 05:27:12;;;;;;;1.90;1.50;;;17.30;99.90;;;;;;5035745;28;20303;-77
2022/10/15 05:29:38;;;;;;;2.10;1.30;;;17.20;99.90;;;;;;5032995;28;20176;-75
2022/10/15 05:32:04;;;;;;;2.10;1.30;;;17.20;99.90;;;;;;5030735;28;20902;-74
2022/10/15 05:34:30;;;;;;;2.00;1.30;;;17.20;99.90;;;;;;5023362;28;20433;-75
2022/10/15 05:36:55;;;;;;;4.83;1.37;;;17.20;99.90;;;;;;5013130;28;21850;-74
2022/10/15 05:39:21;;;;;;;1.70;1.40;;;17.20;99.90;;;;;;5035366;28;20701;-74
2022/10/15 05:41:48;;;;;;;2.17;1.43;;;17.10;99.90;;;;;;5018064;28;20839;-75
2022/10/15 05:44:14;;;;;;;1.90;1.33;;;17.10;99.90;;;;;;5019350;28;20218;-77
2022/10/15 05:46:40;;;;;;;1.93;1.30;;;17.10;99.90;;;;;;5017514;28;20466;-78
2022/10/15 05:49:05;;;;;;;3.80;1.80;;;17.10;99.90;;;;;;5032660;28;20189;-78
2022/10/15 05:51:31;;;;;;;2.17;1.40;;;17.10;99.90;;;;;;5013481;28;21006;-75
2022/10/15 05:53:58;;;;;;;4.37;1.50;;;17.10;99.90;;;;;;5034023;28;20645;-76
2022/10/15 05:56:24;;;;;;;3.40;1.80;;;17.10;99.90;;;;;;5032560;28;20192;-77
2022/10/15 05:58:51;;;;;;;2.20;1.20;;;17.20;99.90;;;;;;5030370;28;20427;-74
2022/10/15 06:01:17;;;;;;;2.00;1.50;;;17.20;99.90;;;;;;5034419;28;20454;-77
2022/10/15 06:03:43;;;;;;;2.60;1.80;;;17.20;99.90;;;;;;5032736;28;20431;-77
2022/10/15 06:06:21;;;;;;;6.07;2.50;;;17.10;99.90;;;;;;5019679;28;20462;-75
2022/10/15 06:08:47;;;;;;;2.83;1.40;;;17.10;99.90;;;;;;5039647;28;20465;-73
2022/10/15 06:11:13;;;;;;;1.80;1.33;;;17.20;99.90;;;;;;5034538;28;20466;-74
2022/10/15 06:13:40;;;;;;;1.87;1.40;;;17.20;99.90;;;;;;5019956;28;20430;-76
2022/10/15 06:16:06;;;;;;;1.90;1.50;;;17.10;99.90;;;;;;5033831;28;20450;-76
2022/10/15 06:18:32;;;;;;;2.23;1.57;;;17.20;99.90;;;;;;5021287;28;20437;-76
2022/10/15 06:20:58;;;;;;;2.00;1.47;;;17.20;99.90;;;;;;5041505;28;20863;-77
2022/10/15 06:23:24;;;;;;;2.30;1.57;;;17.20;99.90;;;;;;5035315;28;20191;-77
2022/10/15 06:25:50;;;;;;;2.10;1.60;;;17.20;99.90;;;;;;5022188;28;20195;-76
2022/10/15 06:28:15;;;;;;;1.90;1.40;;;17.20;99.90;;;;;;5033357;28;20754;-75
2022/10/15 06:30:42;;;;;;;2.57;1.93;;;17.20;99.90;;;;;;5031276;28;20461;-75
2022/10/15 06:33:07;;;;;;;2.43;1.80;;;17.20;99.90;;;;;;5036343;28;20183;-77
2022/10/15 06:35:34;;;;;;;2.43;2.00;;;17.30;99.90;;;;;;5037623;28;20797;-75
2022/10/15 06:38:01;;;;;;;3.23;1.60;;;17.30;99.90;;;;;;5035431;28;20184;-74
2022/10/15 06:40:27;;;;;;;1.70;1.50;;;17.30;99.90;;;;;;5034510;28;20445;-75
2022/10/15 06:42:52;;;;;;;2.07;1.67;;;17.30;99.90;;;;;;5032503;28;20414;-75
2022/10/15 06:45:18;;;;;;;8.77;2.07;;;17.40;99.90;;;;;;5031886;28;20666;-75
2022/10/15 06:47:44;;;;;;;1.67;1.40;;;17.40;99.90;;;;;;5033864;28;20232;-77
2022/10/15 06:50:11;;;;;;;2.10;1.60;;;17.40;99.90;;;;;;5016335;28;20187;-73
2022/10/15 06:52:37;;;;;;;3.40;2.13;;;17.30;99.90;;;;;;5020064;28;20184;-74
2022/10/15 06:55:03;;;;;;;2.77;1.90;;;17.40;99.90;;;;;;5033130;28;20426;-73
2022/10/15 06:57:29;;;;;;;5.63;2.30;;;17.40;99.90;;;;;;5024753;28;20437;-75
2022/10/15 06:59:54;;;;;;;2.37;1.77;;;17.40;99.90;;;;;;5034885;28;20448;-76
2022/10/15 07:02:20;;;;;;;1.90;1.40;;;17.40;99.90;;;;;;5023683;28;20215;-79
2022/10/15 07:04:46;;;;;;;3.50;2.10;;;17.50;99.90;;;;;;5042692;28;20184;-78
2022/10/15 07:07:13;;;;;;;2.80;1.97;;;17.60;99.90;;;;;;5037018;28;20454;-76
2022/10/15 07:09:38;;;;;;;7.30;2.17;;;17.50;99.90;;;;;;5034097;28;20422;-76
2022/10/15 07:12:04;;;;;;;2.93;1.80;;;17.50;99.90;;;;;;5031847;28;20960;-76
2022/10/15 07:14:30;;;;;;;3.00;2.00;;;17.50;99.90;;;;;;5037626;28;20264;-76
2022/10/15 07:16:56;;;;;;;2.83;1.60;;;17.50;99.90;;;;;;5035671;28;20197;-78
2022/10/15 07:19:22;;;;;;;2.37;1.60;;;17.50;99.90;;;;;;5034461;28;20201;-75
2022/10/15 07:21:47;;;;;;;2.37;1.70;;;17.50;99.90;;;;;;5034562;28;20435;-75
2022/10/15 07:24:13;;;;;;;3.27;1.97;;;17.50;99.90;;;;;;5029892;28;20204;-73
2022/10/15 07:26:39;;;;;;;3.90;1.80;;;17.50;99.90;;;;;;5036226;28;20355;-74
2022/10/15 07:29:04;;;;;;;2.17;1.70;;;17.50;99.90;;;;;;5026712;28;20204;-75
2022/10/15 07:31:30;;;;;;;3.20;2.03;;;17.50;99.90;;;;;;5033269;28;20742;-76
2022/10/15 07:33:56;;;;;;;2.30;2.00;;;17.50;99.90;;;;;;5017602;28;20217;-76
2022/10/15 07:36:21;;;;;;;3.50;2.40;;;17.50;99.90;;;;;;5033001;28;22423;-76
2022/10/15 07:38:47;;;;;;;6.00;2.00;;;17.50;99.90;;;;;;5036781;28;20271;-75
2022/10/15 07:41:15;;;;;;;3.20;1.50;;;17.50;99.90;;;;;;5036358;28;20274;-76
2022/10/15 07:43:42;;;;;;;3.53;1.93;;;17.40;99.90;;;;;;5018984;28;20698;-76
2022/10/15 07:46:07;;;;;;;3.90;1.90;;;17.50;99.90;;;;;;5030382;28;20492;-76
2022/10/15 07:48:33;;;;;;;2.00;1.50;;;17.50;99.90;;;;;;5040694;28;20461;-76
2022/10/15 07:51:01;;;;;;;2.80;1.90;;;17.60;99.90;;;;;;5034556;28;20207;-76
2022/10/15 07:53:27;;;;;;;2.57;1.63;;;17.60;99.90;;;;;;5038252;28;20667;-77
2022/10/15 07:55:53;;;;;;;3.30;1.70;;;17.60;99.90;;;;;;5042277;28;20456;-77
2022/10/15 07:58:19;;;;;;;5.27;3.10;;;17.60;99.90;;;;;;5037668;28;20187;-75
2022/10/15 08:00:44;;;;;;;7.23;3.53;;;17.70;99.90;;;;;;5041877;28;20466;-77
2022/10/15 08:03:10;;;;;;;3.53;1.70;;;17.70;99.90;;;;;;5045081;28;20452;-77
2022/10/15 08:05:36;;;;;;;3.70;2.13;;;17.70;99.90;;;;;;5038224;28;20192;-75
2022/10/15 08:08:05;;;;;;;2.20;1.73;;;17.70;99.90;;;;;;5038298;28;20219;-76
2022/10/15 08:10:30;;;;;;;2.73;2.37;;;17.60;99.90;;;;;;5020226;28;20633;-76
2022/10/15 08:12:56;;;;;;;2.10;1.60;;;17.70;99.90;;;;;;5036218;28;20566;-76
2022/10/15 08:15:21;;;;;;;3.13;1.70;;;17.70;99.90;;;;;;5033378;28;20290;-78
2022/10/15 08:17:47;;;;;;;1.90;1.50;;;17.80;99.90;;;;;;5037507;28;20188;-77
2022/10/15 08:20:13;;;;;;;2.70;1.63;;;17.80;99.90;;;;;;5018209;28;20236;-77
2022/10/15 08:22:38;;;;;;;1.90;1.60;;;17.90;99.90;;;;;;5034483;28;20188;-76
2022/10/15 08:25:04;;;;;;;3.53;1.50;;;17.90;99.90;;;;;;5037322;28;20215;-74
2022/10/15 08:27:30;;;;;;;2.33;1.53;;;17.90;99.90;;;;;;5034482;28;20204;-74
2022/10/15 08:29:55;;;;;;;3.23;1.70;;;17.90;99.90;;;;;;5033148;28;20489;-76
2022/10/15 08:32:21;;;;;;;2.17;1.70;;;17.90;99.90;;;;;;5037247;28;20265;-74
2022/10/15 08:34:46;;;;;;;2.53;1.60;;;18.00;99.90;;;;;;5037764;28;21207;-75
2022/10/15 08:37:12;;;;;;;2.67;1.30;;;17.90;99.90;;;;;;5031916;28;20195;-75
2022/10/15 08:39:38;;;;;;;2.70;1.30;;;17.90;99.90;;;;;;5038963;28;20263;-75
2022/10/15 08:42:06;;;;;;;5.50;1.40;;;17.80;99.90;;;;;;5041091;28;20302;-76
2022/10/15 08:44:43;;;;;;;1.73;1.30;;;17.80;99.90;;;;;;5034795;28;20267;-75
2022/10/15 08:47:33;;;;;;;2.80;1.77;;;17.90;99.90;;;;;;5033356;28;20466;-75
2022/10/15 08:50:02;;;;;;;6.43;1.60;;;17.90;99.90;;;;;;5020859;28;20466;-73
2022/10/15 08:52:49;;;;;;;5.03;1.70;;;17.80;99.90;;;;;;5035436;28;20505;-74
2022/10/15 08:55:17;;;;;;;1.70;1.40;;;17.90;99.90;;;;;;5024484;28;20446;-76
2022/10/15 08:57:56;;;;;;;3.60;1.60;;;17.80;99.90;;;;;;5037687;28;20443;-74
2022/10/15 09:00:43;;;;;;;3.00;1.37;;;17.80;99.90;;;;;;5037386;28;20482;-75
2022/10/15 09:03:20;;;;;;;2.93;1.40;;;17.80;99.90;;;;;;5035496;28;20438;-75
2022/10/15 09:06:26;;;;;;;3.60;1.50;;;17.80;99.90;;;;;;5034627;28;21105;-75
2022/10/15 09:09:01;;;;;;;1.80;1.40;;;17.80;99.90;;;;;;4921349;28;20454;-75
2022/10/15 09:12:08;;;;;;;2.33;1.47;;;17.70;99.90;;;;;;5020538;28;20516;-75
2022/10/15 09:14:37;;;;;;;4.20;1.50;;;17.80;99.90;;;;;;5023030;28;20495;-77
2022/10/15 09:17:12;;;;;;;1.90;1.30;;;17.90;99.90;;;;;;5016942;28;21019;-76
2022/10/15 09:19:38;;;;;;;1.97;1.40;;;17.90;99.90;;;;;;5035922;28;20437;-78
2022/10/15 09:22:05;;;;;;;2.13;1.30;;;18.00;99.90;;;;;;5037235;28;20462;-76
2022/10/15 09:24:31;;;;;;;3.40;1.60;;;18.10;99.90;;;;;;5019918;28;20439;-73
2022/10/15 09:27:08;;;;;;;3.50;1.70;;;18.10;99.90;;;;;;5039681;28;20458;-73
2022/10/15 09:29:47;;;;;;;2.03;1.30;;;18.10;99.90;;;;;;5038238;28;20450;-74
2022/10/15 09:32:22;;;;;;;2.47;1.50;;;18.20;99.90;;;;;;5037020;28;20456;-73
2022/10/15 09:35:19;;;;;;;2.10;1.50;;;18.30;99.90;;;;;;5035235;28;20449;-72
2022/10/15 09:37:51;;;;;;;3.10;1.80;;;18.30;99.90;;;;;;5017385;28;20446;-73
2022/10/15 09:40:38;;;;;;;2.27;1.40;;;18.40;99.90;;;;;;5014897;28;20450;-73
2022/10/15 09:43:04;;;;;;;4.17;1.43;;;18.50;99.90;;;;;;5035611;28;20442;-73
2022/10/15 09:45:30;;;;;;;2.60;1.90;;;18.40;99.90;;;;;;5034071;28;20612;-73
2022/10/15 09:48:02;;;;;;;6.07;3.83;;;18.50;99.90;;;;;;5032339;28;20477;-72
2022/10/15 09:50:39;;;;;;;2.73;2.23;;;18.60;99.90;;;;;;5035632;28;20511;-72
2022/10/15 09:53:30;;;;;;;3.00;2.10;;;18.60;99.90;;;;;;5018021;28;20442;-73
2022/10/15 09:56:13;;;;;;;2.77;1.67;;;18.70;99.90;;;;;;5035067;28;20825;-72
2022/10/15 09:58:53;;;;;;;1.83;1.20;;;18.70;99.90;;;;;;5032941;28;20487;-72
2022/10/15 10:01:24;;;;;;;3.27;1.83;;;18.70;99.90;;;;;;5035071;28;20439;-73
2022/10/15 10:03:53;;;;;;;2.67;1.50;;;18.80;99.90;;;;;;5032196;28;20434;-72
2022/10/15 10:06:21;;;;;;;2.77;1.70;;;18.90;99.90;;;;;;5035193;28;20430;-73
2022/10/15 10:08:58;;;;;;;3.17;1.70;;;18.90;99.90;;;;;;5033315;28;20577;-71
2022/10/15 10:11:25;;;;;;;3.00;1.80;;;18.90;99.90;;;;;;5034657;28;20438;-74
2022/10/15 10:13:55;;;;;;;2.23;1.57;;;18.90;99.90;;;;;;5035232;28;20545;-72
2022/10/15 10:16:22;;;;;;;3.43;1.50;;;18.80;99.90;;;;;;5033819;28;20461;-73
2022/10/15 10:19:10;;;;;;;3.33;1.40;;;18.80;99.90;;;;;;5031779;28;20433;-73
2022/10/15 10:21:38;;;;;;;2.20;1.50;;;18.90;99.90;;;;;;5035721;28;20626;-73
2022/10/15 10:24:22;;;;;;;2.73;1.60;;;18.90;99.90;;;;;;5016139;28;20475;-73
2022/10/15 10:26:48;;;;;;;5.77;1.90;;;18.90;99.90;;;;;;5033695;28;20466;-73
2022/10/15 10:29:19;;;;;;;2.30;1.53;;;19.00;99.90;;;;;;5033127;28;21117;-74
2022/10/15 10:31:49;;;;;;;2.97;1.60;;;19.00;99.90;;;;;;5030492;28;21017;-72
2022/10/15 10:34:17;;;;;;;4.20;1.80;;;19.10;99.90;;;;;;5032998;28;20431;-72
2022/10/15 10:36:48;;;;;;;2.27;1.50;;;19.10;99.90;;;;;;5031247;28;20994;-74
2022/10/15 10:39:31;;;;;;;3.50;1.60;;;19.00;99.90;;;;;;5033966;28;20433;-71
2022/10/15 10:41:59;;;;;;;3.53;1.47;;;19.20;99.90;;;;;;5033022;28;20457;-72
2022/10/15 10:44:37;;;;;;;3.17;2.33;;;19.30;99.90;;;;;;5017871;28;20431;-72
2022/10/15 10:47:14;;;;;;;2.80;1.87;;;19.40;99.90;;;;;;5033208;28;20470;-71
2022/10/15 10:49:41;;;;;;;2.83;1.77;;;19.40;99.90;;;;;;5032193;28;20419;-73
2022/10/15 10:52:26;;;;;;;1.73;1.47;;;19.50;99.90;;;;;;5028912;28;20487;-73
2022/10/15 10:55:05;;;;;;;2.23;1.73;;;19.50;99.90;;;;;;5032190;28;20862;-72
2022/10/15 10:57:42;;;;;;;2.23;1.80;;;19.60;99.90;;;;;;5031817;28;20468;-72
2022/10/15 11:00:15;;;;;;;3.20;1.50;;;19.70;99.90;;;;;;5034486;28;20442;-73
2022/10/15 11:02:42;;;;;;;6.73;2.30;;;19.60;99.90;;;;;;5029623;28;20517;-73
2022/10/15 11:05:10;;;;;;;1.93;1.53;;;19.70;99.90;;;;;;5032504;28;20427;-72
2022/10/15 11:08:14;;;;;;;3.20;1.40;;;19.80;99.90;;;;;;5012096;28;20531;-73
2022/10/15 11:10:47;;;;;;;3.17;1.60;;;19.70;99.90;;;;;;4963197;28;20464;-71
2022/10/15 11:13:25;;;;;;;3.17;1.90;;;19.80;99.90;;;;;;5021428;28;21177;-71
2022/10/15 11:16:16;;;;;;;9.40;1.73;;;19.70;99.90;;;;;;5027546;28;20524;-72
2022/10/15 11:18:42;;;;;;;2.60;1.57;;;19.60;99.90;;;;;;4999205;28;20450;-70
2022/10/15 11:21:25;;;;;;;1.80;1.30;;;19.60;99.90;;;;;;5013810;28;20458;-72
2022/10/15 11:24:23;;;;;;;4.03;1.77;;;19.50;99.90;;;;;;5028066;28;20187;-71
2022/10/15 11:27:05;;;;;;;3.70;1.50;;;19.50;99.90;;;;;;5009148;28;20434;-72
2022/10/15 11:29:58;;;;;;;3.80;1.70;;;19.60;99.90;;;;;;5031822;28;20450;-72
2022/10/15 11:32:35;;;;;;;2.73;1.87;;;19.40;99.90;;;;;;5025938;28;21224;-73
2022/10/15 11:35:09;;;;;;;3.37;1.70;;;19.40;99.90;;;;;;5011153;28;20495;-71
2022/10/15 11:37:49;;;;;;;3.03;1.40;;;19.40;99.90;;;;;;5029931;28;20437;-71
2022/10/15 11:40:31;;;;;;;3.97;1.37;;;19.50;99.90;;;;;;5028887;28;20492;-71
2022/10/15 11:43:14;;;;;;;2.67;1.70;;;19.40;99.90;;;;;;5031787;28;20442;-72
2022/10/15 11:46:03;;;;;;;3.60;1.50;;;19.40;99.90;;;;;;5030049;28;20509;-70
2022/10/15 11:49:11;;;;;;;1.73;1.37;;;19.40;99.90;;;;;;5015347;28;20555;-71
2022/10/15 11:52:20;;;;;;;3.17;1.60;;;19.50;99.90;;;;;;5032221;28;21004;-72
2022/10/15 11:55:03;;;;;;;3.03;1.50;;;19.40;99.90;;;;;;4984144;28;21020;-71
2022/10/15 11:57:32;;;;;;;3.23;1.80;;;19.40;99.90;;;;;;5026516;28;20533;-70
2022/10/15 12:00:04;;;;;;;2.53;1.80;;;19.30;99.90;;;;;;5027994;28;20488;-72
2022/10/15 12:02:37;;;;;;;4.63;1.60;;;19.30;99.90;;;;;;5032000;28;20849;-71
2022/10/15 12:05:17;;;;;;;3.90;1.53;;;19.30;99.90;;;;;;5028938;28;20972;-71
2022/10/15 12:07:48;;;;;;;2.73;1.97;;;19.30;99.90;;;;;;5031267;28;20457;-73
2022/10/15 12:10:29;;;;;;;5.77;1.80;;;19.20;99.90;;;;;;5031843;28;20698;-71
2022/10/15 12:13:22;;;;;;;5.10;1.97;;;19.10;99.90;;;;;;5029464;28;20994;-72
2022/10/15 12:16:11;;;;;;;2.77;1.70;;;19.30;99.90;;;;;;5034765;28;20435;-72
2022/10/15 12:18:46;;;;;;;2.70;2.17;;;19.30;99.90;;;;;;5029286;28;20522;-71
2022/10/15 12:21:31;;;;;;;2.60;1.57;;;19.30;99.90;;;;;;5029075;28;20480;-73
2022/10/15 12:23:57;;;;;;;4.13;1.80;;;19.20;99.90;;;;;;5035399;28;20969;-73
2022/10/15 12:26:23;;;;;;;2.20;1.50;;;19.20;99.90;;;;;;5030856;28;20425;-74
2022/10/15 12:28:54;;;;;;;1.83;1.50;;;19.30;99.90;;;;;;5039108;28;20208;-72
2022/10/15 12:31:20;;;;;;;2.27;1.60;;;19.20;99.90;;;;;;5018525;28;20198;-71
2022/10/15 12:33:52;;;;;;;3.03;1.73;;;19.30;99.90;;;;;;5019594;28;20439;-72
2022/10/15 12:36:17;;;;;;;3.40;1.67;;;19.30;99.90;;;;;;5034264;28;20446;-71
2022/10/15 12:39:03;;;;;;;5.60;2.10;;;19.30;99.90;;;;;;5022245;28;20533;-71
2022/10/15 12:41:37;;;;;;;2.10;1.60;;;19.30;99.90;;;;;;5023788;28;20215;-71
2022/10/15 12:44:25;;;;;;;2.63;1.50;;;19.10;99.90;;;;;;5035721;28;21015;-69
2022/10/15 12:46:51;;;;;;;3.23;1.40;;;19.10;99.90;;;;;;5030033;28;20482;-71
2022/10/15 12:49:44;;;;;;;2.50;1.60;;;19.20;99.90;;;;;;5032980;28;20604;-70
2022/10/15 12:53:07;;;;;;;1.87;1.37;;;19.20;99.90;;;;;;5033388;28;20206;-71
2022/10/15 12:55:35;;;;;;;2.67;1.73;;;19.20;99.90;;;;;;4939631;28;20516;-69
2022/10/15 12:58:35;;;;;;;3.40;2.00;;;19.10;99.90;;;;;;4923184;29;21058;-69
2022/10/15 13:01:14;;;;;;;2.90;1.67;;;19.00;99.90;;;;;;5003408;28;20951;-70
2022/10/15 13:03:52;;;;;;;2.53;1.80;;;19.10;99.90;;;;;;5031271;28;20435;-70
2022/10/15 13:06:21;;;;;;;2.00;1.80;;;19.10;99.90;;;;;;5033900;28;20504;-69
2022/10/15 13:08:48;;;;;;;2.20;1.57;;;19.00;99.90;;;;;;5015881;28;20457;-70